createdAt,value
2022-10-09T00:20:07.071Z,11
2022-10-09T00:48:34.887Z,10
2022-10-09T01:17:19.973Z,10
2022-10-09T03:20:45.692Z,9
2022-10-09T03:49:26.072Z,16
2022-10-09T04:49:43.044Z,16
2022-10-09T05:18:21.652Z,17
2022-10-09T05:47:02.705Z,20
2022-10-09T06:15:42.575Z,16
2022-10-09T06:44:23.298Z,16
2022-10-09T07:13:08.891Z,14
2022-10-09T07:41:43.820Z,16
2022-10-09T08:10:09.486Z,16
2022-10-09T08:38:53.154Z,16
2022-10-09T09:07:39.216Z,17
2022-10-09T09:36:19.620Z,15
2022-10-09T10:04:47.841Z,13
2022-10-09T10:33:14.550Z,11
2022-10-09T11:01:48.817Z,9
2022-10-09T11:30:01.485Z,8
2022-10-09T11:58:26.594Z,7
2022-10-09T12:27:12.980Z,7
2022-10-09T12:55:49.381Z,7
2022-10-09T13:53:16.542Z,4
2022-10-09T14:21:38.928Z,4
2022-10-09T14:50:01.760Z,6
2022-10-09T15:47:51.733Z,14
2022-10-09T16:15:42.769Z,6
2022-10-09T16:44:11.145Z,9
2022-10-09T17:12:21.665Z,11
2022-10-09T17:40:37.241Z,7
2022-10-09T18:08:58.729Z,16
2022-10-09T18:37:15.679Z,11
2022-10-09T19:05:38.440Z,13
2022-10-09T19:34:07.422Z,8
2022-10-09T20:02:39.647Z,7
2022-10-09T20:31:11.227Z,8
2022-10-09T21:00:33.593Z,16
2022-10-09T21:58:32.605Z,11
2022-10-09T22:26:56.270Z,9
2022-10-09T22:55:40.050Z,10
2022-10-09T23:24:17.645Z,10
2022-10-09T23:53:05.640Z,10
